sensor_id;sensor_type;location;lat;lon;timestamp;P1;durP1;ratioP1;P2;durP2;ratioP2
71091;SDS011;58751;50.708;7.134;2023-06-26T00:00:23;8.23;;;7.33;;
71091;SDS011;58751;50.708;7.134;2023-06-26T00:02:49;7.90;;;6.77;;
71091;SDS011;58751;50.708;7.134;2023-06-26T00:05:14;8.37;;;7.50;;
71091;SDS011;58751;50.708;7.134;2023-06-26T00:07:40;7.03;;;6.43;;
71091;SDS011;58751;50.708;7.134;2023-06-26T00:10:05;7.10;;;6.50;;
71091;SDS011;58751;50.708;7.134;2023-06-26T00:12:30;8.10;;;7.40;;
71091;SDS011;58751;50.708;7.134;2023-06-26T00:14:56;8.10;;;7.50;;
71091;SDS011;58751;50.708;7.134;2023-06-26T00:17:21;7.67;;;6.93;;
71091;SDS011;58751;50.708;7.134;2023-06-26T00:19:48;7.40;;;6.70;;
71091;SDS011;58751;50.708;7.134;2023-06-26T00:22:13;8.37;;;7.57;;
71091;SDS011;58751;50.708;7.134;2023-06-26T00:24:38;7.03;;;6.43;;
71091;SDS011;58751;50.708;7.134;2023-06-26T00:27:03;11.40;;;7.27;;
71091;SDS011;58751;50.708;7.134;2023-06-26T00:29:29;6.83;;;6.23;;
71091;SDS011;58751;50.708;7.134;2023-06-26T00:31:54;9.17;;;8.23;;
71091;SDS011;58751;50.708;7.134;2023-06-26T00:34:19;7.27;;;6.67;;
71091;SDS011;58751;50.708;7.134;2023-06-26T00:36:46;8.00;;;7.27;;
71091;SDS011;58751;50.708;7.134;2023-06-26T00:39:11;6.70;;;6.13;;
71091;SDS011;58751;50.708;7.134;2023-06-26T00:41:36;8.90;;;7.20;;
71091;SDS011;58751;50.708;7.134;2023-06-26T00:44:01;6.80;;;6.30;;
71091;SDS011;58751;50.708;7.134;2023-06-26T00:46:27;7.03;;;6.30;;
71091;SDS011;58751;50.708;7.134;2023-06-26T00:48:52;7.73;;;7.13;;
71091;SDS011;58751;50.708;7.134;2023-06-26T00:51:17;7.43;;;6.83;;
71091;SDS011;58751;50.708;7.134;2023-06-26T00:53:44;7.43;;;6.73;;
71091;SDS011;58751;50.708;7.134;2023-06-26T00:56:09;7.80;;;7.20;;
71091;SDS011;58751;50.708;7.134;2023-06-26T00:58:35;7.37;;;6.63;;
71091;SDS011;58751;50.708;7.134;2023-06-26T01:01:00;7.60;;;7.00;;
71091;SDS011;58751;50.708;7.134;2023-06-26T01:03:25;7.20;;;6.60;;
71091;SDS011;58751;50.708;7.134;2023-06-26T01:05:51;6.40;;;5.90;;
71091;SDS011;58751;50.708;7.134;2023-06-26T01:08:16;7.17;;;6.67;;
71091;SDS011;58751;50.708;7.134;2023-06-26T01:10:44;6.43;;;5.93;;
71091;SDS011;58751;50.708;7.134;2023-06-26T01:13:09;6.97;;;6.47;;
71091;SDS011;58751;50.708;7.134;2023-06-26T01:15:34;7.40;;;6.80;;
71091;SDS011;58751;50.708;7.134;2023-06-26T01:18:00;6.90;;;6.03;;
71091;SDS011;58751;50.708;7.134;2023-06-26T01:20:25;7.60;;;7.00;;
71091;SDS011;58751;50.708;7.134;2023-06-26T01:22:53;7.90;;;7.23;;
71091;SDS011;58751;50.708;7.134;2023-06-26T01:25:23;7.70;;;6.60;;
71091;SDS011;58751;50.708;7.134;2023-06-26T01:27:55;7.73;;;7.13;;
71091;SDS011;58751;50.708;7.134;2023-06-26T01:30:21;6.13;;;5.63;;
71091;SDS011;58751;50.708;7.134;2023-06-26T01:32:46;8.13;;;7.43;;
71091;SDS011;58751;50.708;7.134;2023-06-26T01:35:12;7.27;;;6.67;;
71091;SDS011;58751;50.708;7.134;2023-06-26T01:37:38;7.97;;;7.27;;
71091;SDS011;58751;50.708;7.134;2023-06-26T01:40:03;7.20;;;6.50;;
71091;SDS011;58751;50.708;7.134;2023-06-26T01:42:29;8.07;;;7.00;;
71091;SDS011;58751;50.708;7.134;2023-06-26T01:44:55;6.50;;;6.00;;
71091;SDS011;58751;50.708;7.134;2023-06-26T01:47:21;6.87;;;6.27;;
71091;SDS011;58751;50.708;7.134;2023-06-26T01:49:49;8.13;;;7.47;;
71091;SDS011;58751;50.708;7.134;2023-06-26T01:52:17;6.73;;;6.20;;
71091;SDS011;58751;50.708;7.134;2023-06-26T01:54:46;7.37;;;6.77;;
71091;SDS011;58751;50.708;7.134;2023-06-26T01:57:13;7.43;;;6.70;;
71091;SDS011;58751;50.708;7.134;2023-06-26T01:59:39;7.53;;;6.93;;
71091;SDS011;58751;50.708;7.134;2023-06-26T02:02:07;6.93;;;6.33;;
71091;SDS011;58751;50.708;7.134;2023-06-26T02:04:33;7.50;;;6.90;;
71091;SDS011;58751;50.708;7.134;2023-06-26T02:06:58;7.13;;;6.53;;
71091;SDS011;58751;50.708;7.134;2023-06-26T02:09:23;6.90;;;6.30;;
71091;SDS011;58751;50.708;7.134;2023-06-26T02:11:48;7.13;;;6.43;;
71091;SDS011;58751;50.708;7.134;2023-06-26T02:14:13;7.60;;;7.00;;
71091;SDS011;58751;50.708;7.134;2023-06-26T02:16:39;6.53;;;6.03;;
71091;SDS011;58751;50.708;7.134;2023-06-26T02:19:05;7.53;;;6.93;;
71091;SDS011;58751;50.708;7.134;2023-06-26T02:21:30;7.77;;;7.13;;
71091;SDS011;58751;50.708;7.134;2023-06-26T02:23:56;8.00;;;7.30;;
71091;SDS011;58751;50.708;7.134;2023-06-26T02:26:21;7.63;;;7.00;;
71091;SDS011;58751;50.708;7.134;2023-06-26T02:28:46;7.30;;;6.70;;
71091;SDS011;58751;50.708;7.134;2023-06-26T02:31:11;7.83;;;7.07;;
71091;SDS011;58751;50.708;7.134;2023-06-26T02:33:36;8.53;;;6.83;;
71091;SDS011;58751;50.708;7.134;2023-06-26T02:36:03;7.93;;;7.33;;
71091;SDS011;58751;50.708;7.134;2023-06-26T02:38:28;7.30;;;6.70;;
71091;SDS011;58751;50.708;7.134;2023-06-26T02:40:54;7.07;;;6.40;;
71091;SDS011;58751;50.708;7.134;2023-06-26T02:43:19;7.77;;;7.17;;
71091;SDS011;58751;50.708;7.134;2023-06-26T02:45:44;6.50;;;6.00;;
71091;SDS011;58751;50.708;7.134;2023-06-26T02:48:09;7.50;;;6.87;;
71091;SDS011;58751;50.708;7.134;2023-06-26T02:50:34;8.30;;;7.60;;
71091;SDS011;58751;50.708;7.134;2023-06-26T02:53:01;7.20;;;6.60;;
71091;SDS011;58751;50.708;7.134;2023-06-26T02:55:26;7.83;;;6.27;;
71091;SDS011;58751;50.708;7.134;2023-06-26T02:57:51;7.80;;;7.10;;
71091;SDS011;58751;50.708;7.134;2023-06-26T03:00:17;7.70;;;7.07;;
71091;SDS011;58751;50.708;7.134;2023-06-26T03:02:42;7.73;;;6.93;;
71091;SDS011;58751;50.708;7.134;2023-06-26T03:05:07;7.90;;;7.30;;
71091;SDS011;58751;50.708;7.134;2023-06-26T03:07:32;7.87;;;6.60;;
71091;SDS011;58751;50.708;7.134;2023-06-26T03:09:59;7.23;;;6.53;;
71091;SDS011;58751;50.708;7.134;2023-06-26T03:12:24;8.33;;;7.53;;
71091;SDS011;58751;50.708;7.134;2023-06-26T03:14:50;7.37;;;6.80;;
71091;SDS011;58751;50.708;7.134;2023-06-26T03:17:15;6.70;;;6.20;;
71091;SDS011;58751;50.708;7.134;2023-06-26T03:19:40;7.77;;;7.07;;
71091;SDS011;58751;50.708;7.134;2023-06-26T03:22:05;8.67;;;7.97;;
71091;SDS011;58751;50.708;7.134;2023-06-26T03:24:31;8.17;;;7.47;;
71091;SDS011;58751;50.708;7.134;2023-06-26T03:26:57;7.20;;;6.50;;
71091;SDS011;58751;50.708;7.134;2023-06-26T03:29:22;9.30;;;8.20;;
71091;SDS011;58751;50.708;7.134;2023-06-26T03:31:47;8.50;;;7.80;;
71091;SDS011;58751;50.708;7.134;2023-06-26T03:34:13;9.10;;;8.30;;
71091;SDS011;58751;50.708;7.134;2023-06-26T03:36:38;7.93;;;7.33;;
71091;SDS011;58751;50.708;7.134;2023-06-26T03:39:03;8.20;;;7.50;;
71091;SDS011;58751;50.708;7.134;2023-06-26T03:41:28;8.13;;;7.33;;
71091;SDS011;58751;50.708;7.134;2023-06-26T03:43:55;8.50;;;7.27;;
71091;SDS011;58751;50.708;7.134;2023-06-26T03:46:20;7.80;;;7.10;;
71091;SDS011;58751;50.708;7.134;2023-06-26T03:48:45;8.53;;;7.63;;
71091;SDS011;58751;50.708;7.134;2023-06-26T03:51:10;7.73;;;7.07;;
71091;SDS011;58751;50.708;7.134;2023-06-26T03:53:36;9.17;;;8.27;;
71091;SDS011;58751;50.708;7.134;2023-06-26T03:56:01;9.93;;;8.00;;
71091;SDS011;58751;50.708;7.134;2023-06-26T03:58:26;7.80;;;7.17;;
71091;SDS011;58751;50.708;7.134;2023-06-26T04:00:53;8.23;;;7.53;;
71091;SDS011;58751;50.708;7.134;2023-06-26T04:03:18;7.90;;;7.30;;
71091;SDS011;58751;50.708;7.134;2023-06-26T04:05:43;7.83;;;7.10;;
71091;SDS011;58751;50.708;7.134;2023-06-26T04:08:08;8.83;;;8.03;;
71091;SDS011;58751;50.708;7.134;2023-06-26T04:10:34;7.50;;;6.80;;
71091;SDS011;58751;50.708;7.134;2023-06-26T04:12:59;8.60;;;7.80;;
71091;SDS011;58751;50.708;7.134;2023-06-26T04:15:24;8.63;;;7.93;;
71091;SDS011;58751;50.708;7.134;2023-06-26T04:17:50;8.27;;;7.67;;
71091;SDS011;58751;50.708;7.134;2023-06-26T04:20:16;7.77;;;7.17;;
71091;SDS011;58751;50.708;7.134;2023-06-26T04:22:41;10.90;;;7.50;;
71091;SDS011;58751;50.708;7.134;2023-06-26T04:25:06;7.73;;;7.03;;
71091;SDS011;58751;50.708;7.134;2023-06-26T04:27:31;7.80;;;7.10;;
71091;SDS011;58751;50.708;7.134;2023-06-26T04:29:57;8.97;;;7.90;;
71091;SDS011;58751;50.708;7.134;2023-06-26T04:32:22;13.10;;;7.37;;
71091;SDS011;58751;50.708;7.134;2023-06-26T04:34:48;7.50;;;6.90;;
71091;SDS011;58751;50.708;7.134;2023-06-26T04:37:14;8.00;;;7.10;;
71091;SDS011;58751;50.708;7.134;2023-06-26T04:39:39;8.10;;;7.40;;
71091;SDS011;58751;50.708;7.134;2023-06-26T04:42:04;7.87;;;7.13;;
71091;SDS011;58751;50.708;7.134;2023-06-26T04:44:30;7.90;;;7.10;;
71091;SDS011;58751;50.708;7.134;2023-06-26T04:46:55;7.40;;;6.90;;
71091;SDS011;58751;50.708;7.134;2023-06-26T04:49:20;8.00;;;7.30;;
71091;SDS011;58751;50.708;7.134;2023-06-26T04:51:47;7.80;;;7.20;;
71091;SDS011;58751;50.708;7.134;2023-06-26T04:54:12;7.60;;;6.90;;
71091;SDS011;58751;50.708;7.134;2023-06-26T04:56:37;6.83;;;6.33;;
71091;SDS011;58751;50.708;7.134;2023-06-26T04:59:03;8.60;;;7.90;;
71091;SDS011;58751;50.708;7.134;2023-06-26T05:01:28;7.87;;;7.10;;
71091;SDS011;58751;50.708;7.134;2023-06-26T05:03:53;8.77;;;7.97;;
71091;SDS011;58751;50.708;7.134;2023-06-26T05:06:18;7.20;;;6.60;;
71091;SDS011;58751;50.708;7.134;2023-06-26T05:08:45;7.73;;;7.13;;
71091;SDS011;58751;50.708;7.134;2023-06-26T05:11:10;8.50;;;7.73;;
71091;SDS011;58751;50.708;7.134;2023-06-26T05:13:35;13.70;;;7.53;;
71091;SDS011;58751;50.708;7.134;2023-06-26T05:16:01;7.77;;;7.07;;
71091;SDS011;58751;50.708;7.134;2023-06-26T05:18:26;7.67;;;6.97;;
71091;SDS011;58751;50.708;7.134;2023-06-26T05:20:51;8.17;;;7.57;;
71091;SDS011;58751;50.708;7.134;2023-06-26T05:23:16;6.90;;;6.40;;
71091;SDS011;58751;50.708;7.134;2023-06-26T05:25:43;6.70;;;6.20;;
71091;SDS011;58751;50.708;7.134;2023-06-26T05:28:09;7.73;;;7.03;;
71091;SDS011;58751;50.708;7.134;2023-06-26T05:30:34;7.00;;;6.40;;
71091;SDS011;58751;50.708;7.134;2023-06-26T05:33:00;7.33;;;6.07;;
71091;SDS011;58751;50.708;7.134;2023-06-26T05:35:26;6.57;;;5.97;;
71091;SDS011;58751;50.708;7.134;2023-06-26T05:37:52;7.97;;;5.17;;
71091;SDS011;58751;50.708;7.134;2023-06-26T05:40:18;6.53;;;5.93;;
71091;SDS011;58751;50.708;7.134;2023-06-26T05:42:45;5.90;;;5.50;;
71091;SDS011;58751;50.708;7.134;2023-06-26T05:45:10;6.97;;;6.37;;
71091;SDS011;58751;50.708;7.134;2023-06-26T05:47:36;5.90;;;5.40;;
71091;SDS011;58751;50.708;7.134;2023-06-26T05:50:02;5.90;;;5.40;;
71091;SDS011;58751;50.708;7.134;2023-06-26T05:52:27;5.90;;;5.40;;
71091;SDS011;58751;50.708;7.134;2023-06-26T05:54:54;6.63;;;6.00;;
71091;SDS011;58751;50.708;7.134;2023-06-26T05:57:19;5.40;;;5.00;;
71091;SDS011;58751;50.708;7.134;2023-06-26T05:59:46;8.40;;;5.90;;
71091;SDS011;58751;50.708;7.134;2023-06-26T06:02:12;6.23;;;5.63;;
71091;SDS011;58751;50.708;7.134;2023-06-26T06:04:37;5.53;;;5.03;;
71091;SDS011;58751;50.708;7.134;2023-06-26T06:07:02;7.40;;;5.13;;
71091;SDS011;58751;50.708;7.134;2023-06-26T06:09:28;6.60;;;5.20;;
71091;SDS011;58751;50.708;7.134;2023-06-26T06:11:53;7.93;;;5.70;;
71091;SDS011;58751;50.708;7.134;2023-06-26T06:14:18;6.33;;;5.83;;
71091;SDS011;58751;50.708;7.134;2023-06-26T06:16:45;5.67;;;5.13;;
71091;SDS011;58751;50.708;7.134;2023-06-26T06:19:10;6.30;;;5.70;;
71091;SDS011;58751;50.708;7.134;2023-06-26T06:21:35;5.60;;;5.20;;
71091;SDS011;58751;50.708;7.134;2023-06-26T06:24:00;6.13;;;5.53;;
71091;SDS011;58751;50.708;7.134;2023-06-26T06:26:26;5.40;;;4.90;;
71091;SDS011;58751;50.708;7.134;2023-06-26T06:28:51;5.77;;;5.20;;
71091;SDS011;58751;50.708;7.134;2023-06-26T06:31:16;7.40;;;5.87;;
71091;SDS011;58751;50.708;7.134;2023-06-26T06:33:43;5.47;;;4.97;;
71091;SDS011;58751;50.708;7.134;2023-06-26T06:36:08;5.70;;;5.00;;
71091;SDS011;58751;50.708;7.134;2023-06-26T06:38:33;5.60;;;5.00;;
71091;SDS011;58751;50.708;7.134;2023-06-26T06:40:58;5.43;;;4.93;;
71091;SDS011;58751;50.708;7.134;2023-06-26T06:43:24;6.93;;;4.67;;
71091;SDS011;58751;50.708;7.134;2023-06-26T06:45:49;6.30;;;4.37;;
71091;SDS011;58751;50.708;7.134;2023-06-26T06:48:14;8.50;;;6.70;;
71091;SDS011;58751;50.708;7.134;2023-06-26T06:50:41;11.70;;;6.50;;
71091;SDS011;58751;50.708;7.134;2023-06-26T06:53:06;7.20;;;5.10;;
71091;SDS011;58751;50.708;7.134;2023-06-26T06:55:32;9.27;;;5.17;;
71091;SDS011;58751;50.708;7.134;2023-06-26T06:57:57;6.20;;;5.60;;
71091;SDS011;58751;50.708;7.134;2023-06-26T07:00:22;7.47;;;5.43;;
71091;SDS011;58751;50.708;7.134;2023-06-26T07:02:47;5.43;;;4.93;;
71091;SDS011;58751;50.708;7.134;2023-06-26T07:05:12;6.60;;;4.80;;
71091;SDS011;58751;50.708;7.134;2023-06-26T07:07:39;9.30;;;5.00;;
71091;SDS011;58751;50.708;7.134;2023-06-26T07:10:05;6.90;;;4.27;;
71091;SDS011;58751;50.708;7.134;2023-06-26T07:12:30;6.30;;;4.07;;
71091;SDS011;58751;50.708;7.134;2023-06-26T07:14:56;5.53;;;5.03;;
71091;SDS011;58751;50.708;7.134;2023-06-26T07:17:21;5.60;;;4.73;;
71091;SDS011;58751;50.708;7.134;2023-06-26T07:19:46;5.93;;;4.93;;
71091;SDS011;58751;50.708;7.134;2023-06-26T07:22:12;5.63;;;4.60;;
71091;SDS011;58751;50.708;7.134;2023-06-26T07:24:38;6.47;;;4.83;;
71091;SDS011;58751;50.708;7.134;2023-06-26T07:27:03;6.30;;;5.07;;
71091;SDS011;58751;50.708;7.134;2023-06-26T07:29:29;5.67;;;4.60;;
71091;SDS011;58751;50.708;7.134;2023-06-26T07:31:54;5.17;;;4.67;;
71091;SDS011;58751;50.708;7.134;2023-06-26T07:34:19;5.77;;;5.13;;
71091;SDS011;58751;50.708;7.134;2023-06-26T07:36:44;5.30;;;4.17;;
71091;SDS011;58751;50.708;7.134;2023-06-26T07:39:10;6.00;;;4.30;;
71091;SDS011;58751;50.708;7.134;2023-06-26T07:41:36;4.90;;;4.50;;
71091;SDS011;58751;50.708;7.134;2023-06-26T07:44:02;4.43;;;3.90;;
71091;SDS011;58751;50.708;7.134;2023-06-26T07:46:27;5.90;;;4.73;;
71091;SDS011;58751;50.708;7.134;2023-06-26T07:48:52;5.60;;;5.10;;
71091;SDS011;58751;50.708;7.134;2023-06-26T07:51:17;6.10;;;4.73;;
71091;SDS011;58751;50.708;7.134;2023-06-26T07:53:43;5.27;;;4.77;;
71091;SDS011;58751;50.708;7.134;2023-06-26T07:56:08;8.47;;;5.60;;
71091;SDS011;58751;50.708;7.134;2023-06-26T07:58:34;7.50;;;5.70;;
71091;SDS011;58751;50.708;7.134;2023-06-26T08:01:00;6.87;;;5.00;;
71091;SDS011;58751;50.708;7.134;2023-06-26T08:03:25;7.83;;;5.20;;
71091;SDS011;58751;50.708;7.134;2023-06-26T08:05:50;6.20;;;4.13;;
71091;SDS011;58751;50.708;7.134;2023-06-26T08:08:15;6.13;;;5.17;;
71091;SDS011;58751;50.708;7.134;2023-06-26T08:10:41;6.47;;;5.00;;
71091;SDS011;58751;50.708;7.134;2023-06-26T08:13:06;8.67;;;5.20;;
71091;SDS011;58751;50.708;7.134;2023-06-26T08:15:32;5.20;;;4.70;;
71091;SDS011;58751;50.708;7.134;2023-06-26T08:17:57;5.13;;;4.73;;
71091;SDS011;58751;50.708;7.134;2023-06-26T08:20:23;6.33;;;5.10;;
71091;SDS011;58751;50.708;7.134;2023-06-26T08:22:48;6.13;;;5.53;;
71091;SDS011;58751;50.708;7.134;2023-06-26T08:25:13;6.07;;;5.30;;
71091;SDS011;58751;50.708;7.134;2023-06-26T08:27:38;6.13;;;5.30;;
71091;SDS011;58751;50.708;7.134;2023-06-26T08:30:04;6.17;;;5.63;;
71091;SDS011;58751;50.708;7.134;2023-06-26T08:32:31;6.50;;;6.00;;
71091;SDS011;58751;50.708;7.134;2023-06-26T08:34:56;8.13;;;5.40;;
71091;SDS011;58751;50.708;7.134;2023-06-26T08:37:21;5.30;;;4.80;;
71091;SDS011;58751;50.708;7.134;2023-06-26T08:39:47;6.30;;;3.90;;
71091;SDS011;58751;50.708;7.134;2023-06-26T08:42:12;5.43;;;4.27;;
71091;SDS011;58751;50.708;7.134;2023-06-26T08:44:37;9.10;;;5.00;;
71091;SDS011;58751;50.708;7.134;2023-06-26T08:47:03;5.67;;;4.80;;
71091;SDS011;58751;50.708;7.134;2023-06-26T08:49:32;6.63;;;4.70;;
71091;SDS011;58751;50.708;7.134;2023-06-26T08:52:01;6.43;;;4.73;;
71091;SDS011;58751;50.708;7.134;2023-06-26T08:54:27;5.80;;;4.33;;
71091;SDS011;58751;50.708;7.134;2023-06-26T08:56:56;9.93;;;4.67;;
71091;SDS011;58751;50.708;7.134;2023-06-26T08:59:22;5.23;;;4.30;;
71091;SDS011;58751;50.708;7.134;2023-06-26T09:01:47;5.50;;;4.20;;
71091;SDS011;58751;50.708;7.134;2023-06-26T09:04:12;5.77;;;4.17;;
71091;SDS011;58751;50.708;7.134;2023-06-26T09:06:39;6.10;;;4.63;;
71091;SDS011;58751;50.708;7.134;2023-06-26T09:09:04;8.93;;;4.07;;
71091;SDS011;58751;50.708;7.134;2023-06-26T09:11:29;6.33;;;3.80;;
71091;SDS011;58751;50.708;7.134;2023-06-26T09:13:55;4.30;;;3.87;;
71091;SDS011;58751;50.708;7.134;2023-06-26T09:16:23;7.33;;;4.40;;
71091;SDS011;58751;50.708;7.134;2023-06-26T09:18:49;4.63;;;4.07;;
71091;SDS011;58751;50.708;7.134;2023-06-26T09:21:16;3.63;;;3.13;;
71091;SDS011;58751;50.708;7.134;2023-06-26T09:23:42;6.80;;;4.50;;
71091;SDS011;58751;50.708;7.134;2023-06-26T09:26:07;7.97;;;3.30;;
71091;SDS011;58751;50.708;7.134;2023-06-26T09:28:33;7.40;;;3.90;;
71091;SDS011;58751;50.708;7.134;2023-06-26T09:31:01;5.40;;;4.80;;
71091;SDS011;58751;50.708;7.134;2023-06-26T09:33:27;6.27;;;4.20;;
71091;SDS011;58751;50.708;7.134;2023-06-26T09:35:52;6.23;;;5.13;;
71091;SDS011;58751;50.708;7.134;2023-06-26T09:38:17;6.00;;;4.23;;
71091;SDS011;58751;50.708;7.134;2023-06-26T09:40:44;4.90;;;4.17;;
71091;SDS011;58751;50.708;7.134;2023-06-26T09:43:09;7.63;;;7.03;;
71091;SDS011;58751;50.708;7.134;2023-06-26T09:45:39;5.70;;;4.00;;
71091;SDS011;58751;50.708;7.134;2023-06-26T09:48:04;7.83;;;3.87;;
71091;SDS011;58751;50.708;7.134;2023-06-26T09:50:30;7.00;;;4.10;;
71091;SDS011;58751;50.708;7.134;2023-06-26T09:52:57;4.60;;;3.80;;
71091;SDS011;58751;50.708;7.134;2023-06-26T09:55:22;5.73;;;3.40;;
71091;SDS011;58751;50.708;7.134;2023-06-26T09:57:48;4.37;;;2.77;;
71091;SDS011;58751;50.708;7.134;2023-06-26T10:00:14;4.00;;;3.13;;
71091;SDS011;58751;50.708;7.134;2023-06-26T10:02:40;4.83;;;3.57;;
71091;SDS011;58751;50.708;7.134;2023-06-26T10:05:05;4.50;;;3.57;;
71091;SDS011;58751;50.708;7.134;2023-06-26T10:07:31;6.10;;;4.20;;
71091;SDS011;58751;50.708;7.134;2023-06-26T10:09:56;5.13;;;3.40;;
71091;SDS011;58751;50.708;7.134;2023-06-26T10:12:26;4.00;;;3.60;;
71091;SDS011;58751;50.708;7.134;2023-06-26T10:14:53;4.77;;;3.00;;
71091;SDS011;58751;50.708;7.134;2023-06-26T10:17:19;4.23;;;2.70;;
71091;SDS011;58751;50.708;7.134;2023-06-26T10:19:45;5.33;;;3.30;;
71091;SDS011;58751;50.708;7.134;2023-06-26T10:22:10;4.37;;;2.50;;
71091;SDS011;58751;50.708;7.134;2023-06-26T10:24:37;3.60;;;3.20;;
71091;SDS011;58751;50.708;7.134;2023-06-26T10:27:04;4.60;;;3.63;;
71091;SDS011;58751;50.708;7.134;2023-06-26T10:29:32;3.73;;;2.90;;
71091;SDS011;58751;50.708;7.134;2023-06-26T10:31:59;5.60;;;2.70;;
71091;SDS011;58751;50.708;7.134;2023-06-26T10:34:25;4.67;;;3.07;;
71091;SDS011;58751;50.708;7.134;2023-06-26T10:36:58;5.27;;;2.97;;
71091;SDS011;58751;50.708;7.134;2023-06-26T10:39:23;4.30;;;2.83;;
71091;SDS011;58751;50.708;7.134;2023-06-26T10:41:48;3.90;;;3.07;;
71091;SDS011;58751;50.708;7.134;2023-06-26T10:44:15;5.00;;;3.10;;
71091;SDS011;58751;50.708;7.134;2023-06-26T10:46:50;4.67;;;2.63;;
71091;SDS011;58751;50.708;7.134;2023-06-26T10:49:17;6.53;;;3.47;;
71091;SDS011;58751;50.708;7.134;2023-06-26T10:51:45;6.87;;;2.87;;
71091;SDS011;58751;50.708;7.134;2023-06-26T10:54:11;3.60;;;2.80;;
71091;SDS011;58751;50.708;7.134;2023-06-26T10:56:41;9.53;;;2.70;;
71091;SDS011;58751;50.708;7.134;2023-06-26T10:59:16;5.23;;;2.90;;
71091;SDS011;58751;50.708;7.134;2023-06-26T11:01:42;4.70;;;2.87;;
71091;SDS011;58751;50.708;7.134;2023-06-26T11:04:07;3.70;;;2.10;;
71091;SDS011;58751;50.708;7.134;2023-06-26T11:06:34;4.37;;;2.40;;
71091;SDS011;58751;50.708;7.134;2023-06-26T11:09:00;3.30;;;2.47;;
71091;SDS011;58751;50.708;7.134;2023-06-26T11:14:06;2.77;;;2.00;;
71091;SDS011;58751;50.708;7.134;2023-06-26T11:16:32;4.57;;;2.53;;
71091;SDS011;58751;50.708;7.134;2023-06-26T11:18:58;3.93;;;2.37;;
71091;SDS011;58751;50.708;7.134;2023-06-26T11:21:23;4.63;;;2.20;;
71091;SDS011;58751;50.708;7.134;2023-06-26T11:23:50;3.87;;;1.80;;
71091;SDS011;58751;50.708;7.134;2023-06-26T11:26:16;5.67;;;2.30;;
71091;SDS011;58751;50.708;7.134;2023-06-26T11:28:45;4.80;;;2.77;;
71091;SDS011;58751;50.708;7.134;2023-06-26T11:31:23;2.57;;;2.37;;
71091;SDS011;58751;50.708;7.134;2023-06-26T11:33:48;3.03;;;2.00;;
71091;SDS011;58751;50.708;7.134;2023-06-26T11:36:13;3.30;;;2.40;;
71091;SDS011;58751;50.708;7.134;2023-06-26T11:38:38;3.60;;;2.50;;
71091;SDS011;58751;50.708;7.134;2023-06-26T11:41:05;3.43;;;1.90;;
71091;SDS011;58751;50.708;7.134;2023-06-26T11:43:30;5.23;;;2.80;;
71091;SDS011;58751;50.708;7.134;2023-06-26T11:45:55;4.93;;;2.27;;
71091;SDS011;58751;50.708;7.134;2023-06-26T11:48:20;4.93;;;2.50;;
71091;SDS011;58751;50.708;7.134;2023-06-26T11:50:46;4.97;;;2.30;;
71091;SDS011;58751;50.708;7.134;2023-06-26T11:53:15;2.30;;;2.10;;
71091;SDS011;58751;50.708;7.134;2023-06-26T11:55:40;82.57;;;24.50;;
71091;SDS011;58751;50.708;7.134;2023-06-26T11:58:07;13.00;;;4.10;;
71091;SDS011;58751;50.708;7.134;2023-06-26T12:00:32;6.57;;;2.63;;
71091;SDS011;58751;50.708;7.134;2023-06-26T12:02:58;2.83;;;2.63;;
71091;SDS011;58751;50.708;7.134;2023-06-26T12:05:23;4.60;;;2.63;;
71091;SDS011;58751;50.708;7.134;2023-06-26T12:07:48;2.20;;;2.00;;
71091;SDS011;58751;50.708;7.134;2023-06-26T12:10:15;5.77;;;3.10;;
71091;SDS011;58751;50.708;7.134;2023-06-26T12:12:40;4.00;;;3.00;;
71091;SDS011;58751;50.708;7.134;2023-06-26T12:15:08;5.17;;;2.20;;
71091;SDS011;58751;50.708;7.134;2023-06-26T12:17:33;3.17;;;2.40;;
71091;SDS011;58751;50.708;7.134;2023-06-26T12:20:02;6.53;;;2.20;;
71091;SDS011;58751;50.708;7.134;2023-06-26T12:22:33;4.33;;;2.40;;
71091;SDS011;58751;50.708;7.134;2023-06-26T12:24:58;4.03;;;2.40;;
71091;SDS011;58751;50.708;7.134;2023-06-26T12:27:24;2.67;;;2.30;;
71091;SDS011;58751;50.708;7.134;2023-06-26T12:29:51;4.07;;;1.90;;
71091;SDS011;58751;50.708;7.134;2023-06-26T12:32:17;2.73;;;2.07;;
71091;SDS011;58751;50.708;7.134;2023-06-26T12:34:46;4.40;;;2.10;;
71091;SDS011;58751;50.708;7.134;2023-06-26T12:37:11;6.43;;;2.00;;
71091;SDS011;58751;50.708;7.134;2023-06-26T12:39:46;4.50;;;2.40;;
71091;SDS011;58751;50.708;7.134;2023-06-26T12:42:13;20.30;;;3.43;;
71091;SDS011;58751;50.708;7.134;2023-06-26T12:44:38;2.80;;;2.40;;
71091;SDS011;58751;50.708;7.134;2023-06-26T12:47:04;6.47;;;2.60;;
71091;SDS011;58751;50.708;7.134;2023-06-26T12:49:31;3.33;;;1.93;;
71091;SDS011;58751;50.708;7.134;2023-06-26T12:51:56;5.63;;;2.47;;
71091;SDS011;58751;50.708;7.134;2023-06-26T12:54:21;4.53;;;2.13;;
71091;SDS011;58751;50.708;7.134;2023-06-26T12:56:47;2.80;;;2.17;;
71091;SDS011;58751;50.708;7.134;2023-06-26T12:59:12;3.70;;;2.50;;
71091;SDS011;58751;50.708;7.134;2023-06-26T13:01:37;4.50;;;2.50;;
71091;SDS011;58751;50.708;7.134;2023-06-26T13:04:03;3.40;;;2.43;;
71091;SDS011;58751;50.708;7.134;2023-06-26T13:06:29;3.20;;;2.13;;
71091;SDS011;58751;50.708;7.134;2023-06-26T13:08:54;5.53;;;2.40;;
71091;SDS011;58751;50.708;7.134;2023-06-26T13:11:20;3.60;;;1.93;;
71091;SDS011;58751;50.708;7.134;2023-06-26T13:13:45;3.93;;;2.50;;
71091;SDS011;58751;50.708;7.134;2023-06-26T13:16:10;3.37;;;2.00;;
71091;SDS011;58751;50.708;7.134;2023-06-26T13:18:35;2.60;;;2.00;;
71091;SDS011;58751;50.708;7.134;2023-06-26T13:21:00;3.30;;;2.43;;
71091;SDS011;58751;50.708;7.134;2023-06-26T13:23:27;3.20;;;1.93;;
71091;SDS011;58751;50.708;7.134;2023-06-26T13:25:53;2.63;;;2.43;;
71091;SDS011;58751;50.708;7.134;2023-06-26T13:28:18;4.17;;;2.60;;
71091;SDS011;58751;50.708;7.134;2023-06-26T13:30:44;5.20;;;2.13;;
71091;SDS011;58751;50.708;7.134;2023-06-26T13:33:09;3.73;;;2.70;;
71091;SDS011;58751;50.708;7.134;2023-06-26T13:35:34;5.73;;;2.47;;
71091;SDS011;58751;50.708;7.134;2023-06-26T13:37:59;3.57;;;2.10;;
71091;SDS011;58751;50.708;7.134;2023-06-26T13:40:26;5.50;;;2.47;;
71091;SDS011;58751;50.708;7.134;2023-06-26T13:42:51;4.17;;;2.13;;
71091;SDS011;58751;50.708;7.134;2023-06-26T13:45:16;2.60;;;2.17;;
71091;SDS011;58751;50.708;7.134;2023-06-26T13:47:41;2.37;;;2.17;;
71091;SDS011;58751;50.708;7.134;2023-06-26T13:50:07;4.37;;;2.10;;
71091;SDS011;58751;50.708;7.134;2023-06-26T13:52:32;4.43;;;2.70;;
71091;SDS011;58751;50.708;7.134;2023-06-26T13:54:57;3.30;;;1.97;;
71091;SDS011;58751;50.708;7.134;2023-06-26T13:57:24;4.33;;;2.20;;
71091;SDS011;58751;50.708;7.134;2023-06-26T13:59:49;6.07;;;2.67;;
71091;SDS011;58751;50.708;7.134;2023-06-26T14:02:14;5.70;;;2.10;;
71091;SDS011;58751;50.708;7.134;2023-06-26T14:04:40;4.20;;;1.80;;
71091;SDS011;58751;50.708;7.134;2023-06-26T14:07:05;3.20;;;1.83;;
71091;SDS011;58751;50.708;7.134;2023-06-26T14:09:30;3.73;;;2.03;;
71091;SDS011;58751;50.708;7.134;2023-06-26T14:11:56;4.13;;;2.23;;
71091;SDS011;58751;50.708;7.134;2023-06-26T14:14:22;4.00;;;2.07;;
71091;SDS011;58751;50.708;7.134;2023-06-26T14:16:48;4.07;;;1.93;;
71091;SDS011;58751;50.708;7.134;2023-06-26T14:19:13;1.83;;;1.50;;
71091;SDS011;58751;50.708;7.134;2023-06-26T14:21:38;4.63;;;1.77;;
71091;SDS011;58751;50.708;7.134;2023-06-26T14:24:03;4.30;;;1.87;;
71091;SDS011;58751;50.708;7.134;2023-06-26T14:26:28;6.77;;;1.80;;
71091;SDS011;58751;50.708;7.134;2023-06-26T14:28:54;4.53;;;2.30;;
71091;SDS011;58751;50.708;7.134;2023-06-26T14:31:20;5.60;;;2.37;;
71091;SDS011;58751;50.708;7.134;2023-06-26T14:33:45;10.93;;;2.93;;
71091;SDS011;58751;50.708;7.134;2023-06-26T14:36:11;3.90;;;2.30;;
71091;SDS011;58751;50.708;7.134;2023-06-26T14:38:36;3.43;;;2.23;;
71091;SDS011;58751;50.708;7.134;2023-06-26T14:41:01;4.03;;;1.60;;